createdAt,value
2017-03-29T00:00:11.349Z,14.72
2017-03-29T00:01:49.796Z,14.66
2017-03-29T00:02:30.808Z,14.58
2017-03-29T00:03:11.733Z,14.55
2017-03-29T00:03:52.669Z,14.58
2017-03-29T00:04:33.547Z,14.44
2017-03-29T00:05:14.507Z,14.45
2017-03-29T00:05:55.445Z,14.45
2017-03-29T00:06:36.380Z,14.47
2017-03-29T00:07:17.321Z,14.51
2017-03-29T00:07:58.233Z,14.53
2017-03-29T00:08:39.184Z,14.51
2017-03-29T00:10:08.275Z,14.36
2017-03-29T00:10:49.314Z,14.36
2017-03-29T00:12:07.206Z,14.35
2017-03-29T00:13:45.734Z,14.3
2017-03-29T00:14:26.962Z,14.26
2017-03-29T00:15:08.127Z,14.28
2017-03-29T00:17:01.871Z,14.32
2017-03-29T00:17:42.924Z,14.25
2017-03-29T00:19:37.560Z,14.25
2017-03-29T00:20:18.445Z,14.26
2017-03-29T00:20:59.335Z,14.15
2017-03-29T00:21:40.209Z,14.17
2017-03-29T00:22:21.091Z,14.14
2017-03-29T00:23:02.006Z,14.18
2017-03-29T00:23:42.897Z,14.15
2017-03-29T00:24:23.788Z,14.18
2017-03-29T00:25:04.674Z,14.12
2017-03-29T00:25:45.560Z,14.11
2017-03-29T00:26:26.441Z,14.1
2017-03-29T00:27:07.331Z,14.11
2017-03-29T00:27:48.223Z,14.08
2017-03-29T00:28:29.107Z,14.14
2017-03-29T00:29:09.997Z,14.07
2017-03-29T00:29:50.883Z,14.05
2017-03-29T00:30:31.770Z,14.04
2017-03-29T00:31:12.650Z,13.93
2017-03-29T00:31:53.540Z,13.97
2017-03-29T00:32:34.421Z,13.97
2017-03-29T00:33:15.304Z,13.97
2017-03-29T00:33:56.189Z,14.04
2017-03-29T00:34:37.128Z,13.89
2017-03-29T00:35:17.984Z,14
2017-03-29T00:35:58.877Z,13.93
2017-03-29T00:36:39.766Z,13.95
2017-03-29T00:37:20.654Z,13.96
2017-03-29T00:38:01.537Z,13.89
2017-03-29T00:38:42.428Z,13.92
2017-03-29T00:39:23.310Z,13.96
2017-03-29T00:40:04.195Z,13.86
2017-03-29T00:40:45.082Z,13.97
2017-03-29T00:41:25.992Z,13.96
2017-03-29T00:42:06.858Z,13.89
2017-03-29T00:42:47.749Z,13.89
2017-03-29T00:43:28.636Z,13.86
2017-03-29T00:44:09.518Z,13.9
2017-03-29T00:44:50.426Z,13.92
2017-03-29T00:45:31.304Z,13.78
2017-03-29T00:46:12.188Z,13.78
2017-03-29T00:46:53.068Z,13.78
2017-03-29T00:47:33.959Z,13.68
2017-03-29T00:48:14.840Z,13.72
2017-03-29T00:48:55.725Z,13.65
2017-03-29T00:49:36.610Z,13.71
2017-03-29T00:50:17.493Z,13.71
2017-03-29T00:50:58.380Z,13.67
2017-03-29T00:51:39.264Z,13.71
2017-03-29T00:52:20.156Z,13.65
2017-03-29T00:53:01.048Z,13.57
2017-03-29T00:53:41.932Z,13.71
2017-03-29T00:54:22.816Z,13.72
2017-03-29T00:55:03.702Z,13.7
2017-03-29T00:55:44.600Z,13.62
2017-03-29T00:56:25.486Z,13.67
2017-03-29T00:57:06.366Z,13.71
2017-03-29T00:57:47.257Z,13.67
2017-03-29T00:58:28.144Z,13.68
2017-03-29T00:59:09.028Z,13.71
2017-03-29T00:59:49.911Z,13.68
2017-03-29T01:00:30.806Z,13.74
2017-03-29T01:01:11.693Z,13.72
2017-03-29T01:01:52.572Z,13.78
2017-03-29T01:02:33.459Z,13.81
2017-03-29T01:03:14.348Z,13.65
2017-03-29T01:03:55.228Z,13.59
2017-03-29T01:04:36.115Z,13.63
2017-03-29T01:05:17.007Z,13.59
2017-03-29T01:05:57.902Z,13.63
2017-03-29T01:06:38.788Z,13.5
2017-03-29T01:07:19.688Z,13.57
2017-03-29T01:08:00.571Z,13.54
2017-03-29T01:08:41.493Z,13.54
2017-03-29T01:09:22.381Z,13.59
2017-03-29T01:10:03.266Z,13.65
2017-03-29T01:10:44.157Z,13.7
2017-03-29T01:11:25.039Z,13.63
2017-03-29T01:12:05.930Z,13.63
2017-03-29T01:12:46.802Z,13.72
2017-03-29T01:13:27.683Z,13.62
2017-03-29T01:14:08.572Z,13.65
2017-03-29T01:14:49.462Z,13.63
2017-03-29T01:15:30.344Z,13.56
2017-03-29T01:16:11.231Z,13.52
2017-03-29T01:16:52.119Z,13.5
2017-03-29T01:17:33.005Z,13.6
2017-03-29T01:18:13.892Z,13.54
2017-03-29T01:18:54.774Z,13.6
2017-03-29T01:19:35.663Z,13.5
2017-03-29T01:20:16.544Z,13.59
2017-03-29T01:20:57.432Z,13.57
2017-03-29T01:21:38.319Z,13.6
2017-03-29T01:22:19.206Z,13.56
2017-03-29T01:23:00.085Z,13.57
2017-03-29T01:23:40.971Z,13.52
2017-03-29T01:24:21.860Z,13.44
2017-03-29T01:25:02.739Z,13.42
2017-03-29T01:25:43.624Z,13.37
2017-03-29T01:26:24.524Z,13.46
2017-03-29T01:27:05.412Z,13.38
2017-03-29T01:27:46.288Z,13.38
2017-03-29T01:28:27.169Z,13.33
2017-03-29T01:29:08.059Z,13.41
2017-03-29T01:29:48.945Z,13.35
2017-03-29T01:30:29.831Z,13.3
2017-03-29T01:31:10.716Z,13.15
2017-03-29T01:31:51.606Z,13.18
2017-03-29T01:32:32.486Z,13.18
2017-03-29T01:33:13.374Z,13.15
2017-03-29T01:33:54.268Z,13.27
2017-03-29T01:34:35.154Z,13.23
2017-03-29T01:35:16.031Z,13.16
2017-03-29T01:35:56.909Z,13.3
2017-03-29T01:36:37.791Z,13.22
2017-03-29T01:37:18.683Z,13.16
2017-03-29T01:37:59.570Z,13.12
2017-03-29T01:38:40.458Z,13.13
2017-03-29T01:39:21.339Z,13.25
2017-03-29T01:40:02.236Z,13.3
2017-03-29T01:40:43.129Z,13.18
2017-03-29T01:41:24.022Z,13.18
2017-03-29T01:42:04.902Z,13.31
2017-03-29T01:42:45.793Z,13.3
2017-03-29T01:43:26.675Z,13.25
2017-03-29T01:44:07.566Z,13.31
2017-03-29T01:44:48.444Z,13.31
2017-03-29T01:45:29.345Z,13.27
2017-03-29T01:46:10.225Z,13.27
2017-03-29T01:46:51.107Z,13.31
2017-03-29T01:47:31.987Z,13.19
2017-03-29T01:48:12.874Z,13.15
2017-03-29T01:48:53.759Z,13.15
2017-03-29T01:49:34.653Z,13.13
2017-03-29T01:50:15.521Z,13.16
2017-03-29T01:50:56.419Z,13.15
2017-03-29T01:51:37.302Z,13.19
2017-03-29T01:52:18.181Z,13.13
2017-03-29T01:52:59.063Z,13.27
2017-03-29T01:53:39.951Z,13.19
2017-03-29T01:54:20.860Z,13.13
2017-03-29T01:55:01.732Z,13.13
2017-03-29T01:55:42.632Z,13.11
2017-03-29T01:56:23.511Z,13.11
2017-03-29T01:57:04.391Z,13.16
2017-03-29T01:57:45.272Z,13.03
2017-03-29T01:58:26.162Z,12.93
2017-03-29T01:59:07.057Z,13.12
2017-03-29T01:59:47.938Z,13.05
2017-03-29T02:00:28.823Z,13
2017-03-29T02:01:09.742Z,12.98
2017-03-29T02:01:50.601Z,12.9
2017-03-29T02:02:31.483Z,12.87
2017-03-29T02:03:12.372Z,12.82
2017-03-29T02:03:53.265Z,12.85
2017-03-29T02:04:34.147Z,12.87
2017-03-29T02:05:15.033Z,12.94
2017-03-29T02:05:55.931Z,12.95
2017-03-29T02:06:36.811Z,12.79
2017-03-29T02:07:17.696Z,12.8
2017-03-29T02:07:58.604Z,12.87
2017-03-29T02:08:39.475Z,12.87
2017-03-29T02:09:20.356Z,12.82
2017-03-29T02:10:01.248Z,12.87
2017-03-29T02:10:42.130Z,12.9
2017-03-29T02:11:23.476Z,12.91
2017-03-29T02:12:04.357Z,12.94
2017-03-29T02:12:45.237Z,12.85
2017-03-29T02:13:26.142Z,12.8
2017-03-29T02:14:07.021Z,12.7
2017-03-29T02:14:47.903Z,12.7
2017-03-29T02:15:28.786Z,12.79
2017-03-29T02:16:09.671Z,12.65
2017-03-29T02:16:50.558Z,12.67
2017-03-29T02:17:31.444Z,12.62
2017-03-29T02:18:12.310Z,12.6
2017-03-29T02:18:53.195Z,12.6
2017-03-29T02:19:34.076Z,12.61
2017-03-29T02:20:14.960Z,12.61
2017-03-29T02:20:55.838Z,12.72
2017-03-29T02:21:36.726Z,12.64
2017-03-29T02:22:17.617Z,12.61
2017-03-29T02:22:58.511Z,12.68
2017-03-29T02:23:39.383Z,12.68
2017-03-29T02:24:20.263Z,12.86
2017-03-29T02:25:01.135Z,12.76
2017-03-29T02:25:42.019Z,12.73
2017-03-29T02:26:22.904Z,12.61
2017-03-29T02:27:03.780Z,12.68
2017-03-29T02:27:44.667Z,12.64
2017-03-29T02:28:25.555Z,12.67
2017-03-29T02:29:06.438Z,12.7
2017-03-29T02:29:47.316Z,12.62
2017-03-29T02:30:28.211Z,12.54
2017-03-29T02:31:09.118Z,12.46
2017-03-29T02:31:49.998Z,12.45
2017-03-29T02:32:30.889Z,12.47
2017-03-29T02:33:12.496Z,12.45
2017-03-29T02:33:53.373Z,12.5
2017-03-29T02:34:34.257Z,12.36
2017-03-29T02:35:15.146Z,12.45
2017-03-29T02:35:56.029Z,12.45
2017-03-29T02:36:36.904Z,12.39
2017-03-29T02:37:17.790Z,12.47
2017-03-29T02:37:58.687Z,12.46
2017-03-29T02:38:39.578Z,12.39
2017-03-29T02:39:20.460Z,12.4
2017-03-29T02:40:01.347Z,12.39
2017-03-29T02:40:42.236Z,12.36
2017-03-29T02:41:23.114Z,12.39
2017-03-29T02:42:03.998Z,12.45
2017-03-29T02:42:44.895Z,12.39
2017-03-29T02:43:25.788Z,12.43
2017-03-29T02:44:06.663Z,12.42
2017-03-29T02:44:47.540Z,12.36
2017-03-29T02:45:28.432Z,12.39
2017-03-29T02:46:09.313Z,12.37
2017-03-29T02:46:50.181Z,12.4
2017-03-29T02:47:31.074Z,12.37
2017-03-29T02:48:11.962Z,12.32
2017-03-29T02:48:52.849Z,12.35
2017-03-29T02:49:33.733Z,12.28
2017-03-29T02:50:14.615Z,12.31
2017-03-29T02:50:55.505Z,12.35
2017-03-29T02:51:36.385Z,12.39
2017-03-29T02:52:17.273Z,12.31
2017-03-29T02:52:58.157Z,12.22
2017-03-29T02:53:39.046Z,12.22
2017-03-29T02:54:19.925Z,12.24
2017-03-29T02:55:00.812Z,12.17
2017-03-29T02:55:41.697Z,12.18
2017-03-29T02:56:22.586Z,12.21
2017-03-29T02:57:03.475Z,12.35
2017-03-29T02:57:44.356Z,12.21
2017-03-29T02:58:25.981Z,12.21
2017-03-29T02:59:06.864Z,12.35
2017-03-29T02:59:47.750Z,12.21
2017-03-29T03:00:28.631Z,12.2
2017-03-29T03:01:09.517Z,12.17
2017-03-29T03:01:50.399Z,12.17
2017-03-29T03:02:31.288Z,12.2
2017-03-29T03:03:12.176Z,12.25
2017-03-29T03:03:53.073Z,12.17
2017-03-29T03:04:33.956Z,12.22
2017-03-29T03:05:14.841Z,12.04
2017-03-29T03:05:55.726Z,12.06
2017-03-29T03:06:36.608Z,12.1
2017-03-29T03:07:17.498Z,12.2
2017-03-29T03:07:58.384Z,12.03
2017-03-29T03:08:39.278Z,12.02
2017-03-29T03:09:20.166Z,12.13
2017-03-29T03:10:01.052Z,12.18
2017-03-29T03:10:41.927Z,12.15
2017-03-29T03:11:22.794Z,12.17
2017-03-29T03:12:03.678Z,12.15
2017-03-29T03:12:44.566Z,12.24
2017-03-29T03:13:25.448Z,12.25
2017-03-29T03:14:06.329Z,12.2
2017-03-29T03:14:47.210Z,12.21
2017-03-29T03:15:28.096Z,12.15
2017-03-29T03:16:08.982Z,12.09
2017-03-29T03:16:49.915Z,12.03
2017-03-29T03:17:30.799Z,11.97
2017-03-29T03:18:11.690Z,12.09
2017-03-29T03:18:52.583Z,12.1
2017-03-29T03:19:33.466Z,12.1
2017-03-29T03:20:14.353Z,12.12
2017-03-29T03:20:55.233Z,12.2
2017-03-29T03:21:36.117Z,12
2017-03-29T03:22:16.999Z,12.07
2017-03-29T03:22:57.871Z,12.1
2017-03-29T03:23:38.748Z,12
2017-03-29T03:24:19.628Z,12.02
2017-03-29T03:25:00.513Z,12.03
2017-03-29T03:25:41.400Z,11.97
2017-03-29T03:26:22.277Z,11.97
2017-03-29T03:27:03.160Z,12.02
2017-03-29T03:27:44.050Z,12
2017-03-29T03:28:24.931Z,12
2017-03-29T03:29:05.813Z,11.99
2017-03-29T03:29:46.693Z,11.87
2017-03-29T03:30:27.585Z,11.88
2017-03-29T03:31:08.460Z,11.86
2017-03-29T03:31:49.350Z,11.94
2017-03-29T03:32:30.224Z,12
2017-03-29T03:33:11.116Z,12.02
2017-03-29T03:33:52.006Z,11.95
2017-03-29T03:34:32.888Z,11.99
2017-03-29T03:35:13.776Z,11.88
2017-03-29T03:35:54.671Z,11.84
2017-03-29T03:36:35.553Z,11.88
2017-03-29T03:37:16.445Z,12
2017-03-29T03:37:57.332Z,11.84
2017-03-29T03:38:38.213Z,11.9
2017-03-29T03:39:19.089Z,11.9
2017-03-29T03:39:59.970Z,11.87
2017-03-29T03:40:40.893Z,11.65
2017-03-29T03:41:21.749Z,11.68
2017-03-29T03:42:02.637Z,11.65
2017-03-29T03:42:43.511Z,11.63
2017-03-29T03:43:24.404Z,11.68
2017-03-29T03:44:05.286Z,11.63
2017-03-29T03:44:46.178Z,11.68
2017-03-29T03:45:27.064Z,11.54
2017-03-29T03:46:07.949Z,11.54
2017-03-29T03:46:48.851Z,11.66
2017-03-29T03:47:29.741Z,11.73
2017-03-29T03:48:10.624Z,11.73
2017-03-29T03:48:51.508Z,11.8
2017-03-29T03:49:32.391Z,11.87
2017-03-29T03:50:13.276Z,11.84
2017-03-29T03:50:54.154Z,11.73
2017-03-29T03:51:35.038Z,11.73
2017-03-29T03:52:15.918Z,11.66
2017-03-29T03:52:56.801Z,11.57
2017-03-29T03:53:37.681Z,11.72
2017-03-29T03:54:18.566Z,11.7
2017-03-29T03:54:59.451Z,11.8
2017-03-29T03:55:40.334Z,11.86
2017-03-29T03:56:21.222Z,11.81
2017-03-29T03:57:02.102Z,11.7
2017-03-29T03:57:42.985Z,11.66
2017-03-29T03:58:23.870Z,11.7
2017-03-29T03:59:04.757Z,11.63
2017-03-29T03:59:45.639Z,11.59
2017-03-29T04:00:26.520Z,11.69
2017-03-29T04:01:07.411Z,11.55
2017-03-29T04:01:48.292Z,11.55
2017-03-29T04:02:29.180Z,11.5
2017-03-29T04:03:10.076Z,11.68
2017-03-29T04:03:50.961Z,11.65
2017-03-29T04:04:31.846Z,11.65
2017-03-29T04:05:12.731Z,11.68
2017-03-29T04:05:53.616Z,11.66
2017-03-29T04:06:34.501Z,11.59
2017-03-29T04:07:15.384Z,11.68
2017-03-29T04:07:56.264Z,11.68
2017-03-29T04:08:37.149Z,11.59
2017-03-29T04:09:18.034Z,11.54
2017-03-29T04:09:58.914Z,11.72
2017-03-29T04:10:39.797Z,11.68
2017-03-29T04:11:20.683Z,11.7
2017-03-29T04:12:01.570Z,11.69
2017-03-29T04:12:42.451Z,11.66
2017-03-29T04:13:23.332Z,11.69
2017-03-29T04:14:04.213Z,11.6
2017-03-29T04:14:45.102Z,11.62
2017-03-29T04:15:25.980Z,11.62
2017-03-29T04:16:06.858Z,11.69
2017-03-29T04:16:47.743Z,11.68
2017-03-29T04:17:28.628Z,11.57
2017-03-29T04:18:09.510Z,11.55
2017-03-29T04:18:50.396Z,11.62
2017-03-29T04:19:31.274Z,11.6
2017-03-29T04:20:12.158Z,11.65
2017-03-29T04:20:53.041Z,11.65
2017-03-29T04:21:33.927Z,11.75
2017-03-29T04:22:14.818Z,11.72
2017-03-29T04:22:55.700Z,11.7
2017-03-29T04:23:36.579Z,11.72
2017-03-29T04:24:17.463Z,11.83
2017-03-29T04:24:58.352Z,11.87
2017-03-29T04:25:39.241Z,11.8
2017-03-29T04:26:20.119Z,11.9
2017-03-29T04:27:01.019Z,11.8
2017-03-29T04:27:41.907Z,11.84
2017-03-29T04:28:22.792Z,11.83
2017-03-29T04:29:03.674Z,11.73
2017-03-29T04:29:44.565Z,11.86
2017-03-29T04:30:25.454Z,11.83
2017-03-29T04:31:06.341Z,11.9
2017-03-29T04:31:47.245Z,11.87
2017-03-29T04:32:28.126Z,11.8
2017-03-29T04:33:09.009Z,11.7
2017-03-29T04:33:49.899Z,11.75
2017-03-29T04:34:30.788Z,11.72
2017-03-29T04:35:11.668Z,11.68
2017-03-29T04:35:52.550Z,11.72
2017-03-29T04:36:33.441Z,11.73
2017-03-29T04:37:14.333Z,11.75
2017-03-29T04:37:55.211Z,11.81
2017-03-29T04:38:36.093Z,11.8
2017-03-29T04:39:16.975Z,11.73
2017-03-29T04:39:57.860Z,11.7
2017-03-29T04:40:38.747Z,11.62
2017-03-29T04:41:19.625Z,11.6
2017-03-29T04:42:00.512Z,11.66
2017-03-29T04:42:41.399Z,11.66
2017-03-29T04:43:22.283Z,11.7
2017-03-29T04:44:03.165Z,11.81
2017-03-29T04:44:44.052Z,11.68
2017-03-29T04:45:24.936Z,11.72
2017-03-29T04:46:05.809Z,11.6
2017-03-29T04:46:46.685Z,11.68
2017-03-29T04:47:27.570Z,11.68
2017-03-29T04:48:08.510Z,11.68
2017-03-29T04:48:49.419Z,11.69
2017-03-29T04:50:07.300Z,11.77
2017-03-29T04:50:48.289Z,11.63
2017-03-29T04:51:29.246Z,11.69
2017-03-29T04:52:10.216Z,11.72
2017-03-29T04:52:51.173Z,11.66
2017-03-29T04:53:32.075Z,11.66
2017-03-29T04:54:12.954Z,11.66
2017-03-29T04:54:53.837Z,11.7
2017-03-29T04:55:34.711Z,11.73
2017-03-29T04:56:15.596Z,11.69
2017-03-29T04:56:56.477Z,11.69
2017-03-29T04:57:37.359Z,11.72
2017-03-29T04:58:18.244Z,11.72
2017-03-29T04:58:59.121Z,11.7
2017-03-29T05:00:27.207Z,11.73
2017-03-29T05:01:08.089Z,11.75
2017-03-29T05:01:48.969Z,11.7
2017-03-29T05:02:29.847Z,11.7
2017-03-29T05:03:10.754Z,11.65
2017-03-29T05:03:51.632Z,11.68
2017-03-29T05:04:32.520Z,11.65
2017-03-29T05:05:13.405Z,11.68
2017-03-29T05:05:54.287Z,11.63
2017-03-29T05:06:35.168Z,11.66
2017-03-29T05:07:16.057Z,11.62
2017-03-29T05:07:56.935Z,11.75
2017-03-29T05:08:37.805Z,11.63
2017-03-29T05:09:18.701Z,11.69
2017-03-29T05:09:59.594Z,11.68
2017-03-29T05:10:40.473Z,11.69
2017-03-29T05:11:21.351Z,11.72
2017-03-29T05:12:02.244Z,11.78
2017-03-29T05:12:43.130Z,11.65
2017-03-29T05:13:24.029Z,11.7
2017-03-29T05:14:04.917Z,11.7
2017-03-29T05:15:44.378Z,11.69
2017-03-29T05:16:25.262Z,11.81
2017-03-29T05:17:06.142Z,11.91
2017-03-29T05:17:47.031Z,11.83
2017-03-29T05:18:27.925Z,11.84
2017-03-29T05:19:08.806Z,11.86
2017-03-29T05:19:49.693Z,11.88
2017-03-29T05:20:30.588Z,11.91
2017-03-29T05:21:11.466Z,11.94
2017-03-29T05:21:52.363Z,11.87
2017-03-29T05:22:33.258Z,11.84
2017-03-29T05:23:14.135Z,11.94
2017-03-29T05:23:55.018Z,11.88
2017-03-29T05:24:35.905Z,11.88
2017-03-29T05:25:16.792Z,12.02
2017-03-29T05:25:57.677Z,12.03
2017-03-29T05:26:38.558Z,12.07
2017-03-29T05:27:19.443Z,12.06
2017-03-29T05:28:00.329Z,12
2017-03-29T05:28:41.212Z,12.06
2017-03-29T05:29:22.104Z,12.02
2017-03-29T05:30:03.046Z,12.12
2017-03-29T05:30:43.934Z,12.21
2017-03-29T05:31:24.836Z,12.17
2017-03-29T05:32:05.707Z,12.18
2017-03-29T05:32:46.579Z,12.12
2017-03-29T05:33:27.462Z,12.13
2017-03-29T05:34:08.345Z,12.17
2017-03-29T05:34:49.229Z,12.18
2017-03-29T05:35:30.110Z,12.17
2017-03-29T05:36:10.991Z,12.18
2017-03-29T05:36:51.869Z,12.29
2017-03-29T05:37:32.747Z,12.25
2017-03-29T05:38:13.627Z,12.31
2017-03-29T05:38:54.524Z,12.31
2017-03-29T05:39:35.429Z,12.28
2017-03-29T05:40:16.280Z,12.36
2017-03-29T05:40:57.158Z,12.37
2017-03-29T05:41:38.036Z,12.45
2017-03-29T05:42:18.927Z,12.46
2017-03-29T05:42:59.812Z,12.43
2017-03-29T05:43:40.694Z,12.43
2017-03-29T05:44:21.576Z,12.45
2017-03-29T05:45:02.461Z,12.46
2017-03-29T05:45:43.347Z,12.45
2017-03-29T05:46:24.247Z,12.39
2017-03-29T05:47:05.102Z,12.43
2017-03-29T05:47:45.980Z,12.4
2017-03-29T05:48:26.872Z,12.53
2017-03-29T05:49:07.754Z,12.46
2017-03-29T05:49:48.643Z,12.55
2017-03-29T05:50:29.527Z,12.68
2017-03-29T05:51:10.409Z,12.62
2017-03-29T05:51:51.291Z,12.62
2017-03-29T05:52:32.168Z,12.6
2017-03-29T05:53:13.053Z,12.65
2017-03-29T05:53:53.945Z,12.62
2017-03-29T05:54:34.826Z,12.68
2017-03-29T05:55:15.707Z,13.01
2017-03-29T05:55:56.599Z,13.41
2017-03-29T05:56:37.475Z,13.97
2017-03-29T05:57:18.357Z,14.28
2017-03-29T05:57:59.236Z,14.28
2017-03-29T05:58:40.128Z,13.9
2017-03-29T05:59:21.014Z,13.68
2017-03-29T06:00:01.891Z,13.38
2017-03-29T06:00:42.756Z,13.25
2017-03-29T06:01:23.637Z,13.2
2017-03-29T06:02:04.546Z,13.35
2017-03-29T06:02:45.424Z,13.28
2017-03-29T06:03:26.304Z,13.31
2017-03-29T06:04:07.194Z,13.22
2017-03-29T06:04:48.075Z,13.47
2017-03-29T06:05:28.956Z,13.39
2017-03-29T06:06:09.839Z,13.35
2017-03-29T06:06:50.725Z,13.44
2017-03-29T06:07:31.612Z,13.75
2017-03-29T06:08:12.490Z,13.65
2017-03-29T06:08:53.372Z,13.71
2017-03-29T06:09:34.259Z,13.53
2017-03-29T06:10:15.144Z,13.68
2017-03-29T06:10:56.032Z,13.67
2017-03-29T06:11:36.898Z,13.68
2017-03-29T06:12:17.791Z,13.92
2017-03-29T06:12:58.673Z,14.11
2017-03-29T06:13:39.557Z,13.89
2017-03-29T06:14:20.441Z,14.18
2017-03-29T06:15:01.337Z,14.22
2017-03-29T06:15:42.220Z,14.18
2017-03-29T06:16:23.081Z,14.37
2017-03-29T06:17:03.995Z,14.54
2017-03-29T06:17:44.857Z,14.66
2017-03-29T06:18:25.745Z,14.48
2017-03-29T06:19:06.618Z,14.62
2017-03-29T06:19:47.507Z,14.41
2017-03-29T06:20:28.388Z,14.37
2017-03-29T06:21:09.276Z,14.55
2017-03-29T06:21:50.155Z,14.62
2017-03-29T06:22:31.041Z,14.53
2017-03-29T06:23:11.925Z,14.33
2017-03-29T06:23:52.808Z,14.59
2017-03-29T06:24:33.684Z,14.62
2017-03-29T06:25:14.569Z,14.36
2017-03-29T06:25:55.462Z,14.53
2017-03-29T06:26:36.348Z,14.4
2017-03-29T06:27:17.228Z,14.54
2017-03-29T06:27:58.105Z,14.82
2017-03-29T06:28:38.992Z,14.77
2017-03-29T06:29:19.875Z,16.32
2017-03-29T06:30:00.756Z,16.02
2017-03-29T06:30:41.642Z,16.65
2017-03-29T06:31:22.534Z,17.29
2017-03-29T06:32:03.419Z,17.68
2017-03-29T06:32:44.296Z,22.38
2017-03-29T06:33:25.173Z,18.84
2017-03-29T06:34:06.059Z,18.86
2017-03-29T06:34:46.942Z,17.72
2017-03-29T06:35:27.822Z,16.87
2017-03-29T06:36:08.708Z,16.5
2017-03-29T06:36:49.590Z,16.16
2017-03-29T06:37:30.477Z,15.98
2017-03-29T06:38:11.355Z,15.92
2017-03-29T06:38:52.268Z,15.76
2017-03-29T06:39:33.167Z,15.83
2017-03-29T06:40:14.053Z,15.72
2017-03-29T06:40:54.936Z,15.64
2017-03-29T06:41:35.821Z,15.49
2017-03-29T06:42:16.704Z,15.58
2017-03-29T06:42:57.588Z,15.68
2017-03-29T06:43:38.474Z,15.65
2017-03-29T06:44:19.356Z,15.59
2017-03-29T06:45:00.267Z,15.39
2017-03-29T06:45:41.150Z,15.39
2017-03-29T06:46:22.031Z,15.49
2017-03-29T06:47:02.917Z,15.55
2017-03-29T06:47:43.798Z,15.67
2017-03-29T06:48:24.678Z,15.84
2017-03-29T06:49:05.553Z,15.75
2017-03-29T06:49:46.446Z,15.68
2017-03-29T06:50:27.324Z,15.51
2017-03-29T06:51:08.211Z,15.49
2017-03-29T06:51:49.092Z,15.47
2017-03-29T06:52:29.976Z,15.44
2017-03-29T06:53:10.852Z,15.47
2017-03-29T06:53:51.729Z,15.82
2017-03-29T06:54:32.611Z,16
2017-03-29T06:55:13.491Z,15.42
2017-03-29T06:55:54.370Z,15.59
2017-03-29T06:56:35.238Z,16
2017-03-29T06:57:16.117Z,15.97
2017-03-29T06:57:57.000Z,16.01
2017-03-29T06:58:37.880Z,15.94
2017-03-29T06:59:18.807Z,15.97
2017-03-29T06:59:59.686Z,16.09
2017-03-29T07:00:40.558Z,15.97
2017-03-29T07:01:21.437Z,16.01
2017-03-29T07:02:02.308Z,15.84
2017-03-29T07:02:43.219Z,16.01
2017-03-29T07:03:24.075Z,16.29
2017-03-29T07:04:04.992Z,16.49
2017-03-29T07:04:45.884Z,16.47
2017-03-29T07:05:26.759Z,16.56
2017-03-29T07:06:07.590Z,16.17
2017-03-29T07:06:48.469Z,15.98
2017-03-29T07:07:29.351Z,16.2
2017-03-29T07:08:10.240Z,16.09
2017-03-29T07:08:51.131Z,16.23
2017-03-29T07:09:32.019Z,16.15
2017-03-29T07:10:12.930Z,16.31
2017-03-29T07:10:53.818Z,16.47
2017-03-29T07:11:34.700Z,17.02
2017-03-29T07:12:15.582Z,17.01
2017-03-29T07:12:56.461Z,17.39
2017-03-29T07:13:37.342Z,17.63
2017-03-29T07:14:18.222Z,17.67
2017-03-29T07:14:59.101Z,16.86
2017-03-29T07:15:39.984Z,17.22
2017-03-29T07:16:20.864Z,17.05
2017-03-29T07:17:01.748Z,17.24
2017-03-29T07:17:42.632Z,17.39
2017-03-29T07:18:23.517Z,16.83
2017-03-29T07:19:04.508Z,16.66
2017-03-29T07:19:45.444Z,16.61
2017-03-29T07:20:26.321Z,16.87
2017-03-29T07:21:07.200Z,16.78
2017-03-29T07:21:48.080Z,16.38
2017-03-29T07:22:28.967Z,16.32
2017-03-29T07:23:09.852Z,16.64
2017-03-29T07:23:50.737Z,16.87
2017-03-29T07:24:31.619Z,16.47
2017-03-29T07:25:12.512Z,16.26
2017-03-29T07:25:53.393Z,16.46
2017-03-29T07:26:34.278Z,16.51
2017-03-29T07:27:15.162Z,16.13
2017-03-29T07:27:56.032Z,16.04
2017-03-29T07:28:36.916Z,16.08
2017-03-29T07:29:17.800Z,16.43
2017-03-29T07:29:58.676Z,16.38
2017-03-29T07:30:39.549Z,16.53
2017-03-29T07:31:20.426Z,16.69
2017-03-29T07:32:01.307Z,16.16
2017-03-29T07:32:42.182Z,15.92
2017-03-29T07:33:23.067Z,15.94
2017-03-29T07:34:03.973Z,15.8
2017-03-29T07:34:44.851Z,15.84
2017-03-29T07:35:25.730Z,15.92
2017-03-29T07:36:06.604Z,16.46
2017-03-29T07:36:47.489Z,16.75
2017-03-29T07:37:28.379Z,16
2017-03-29T07:38:09.253Z,-39.49
2017-03-29T07:38:50.137Z,-39.49
2017-03-29T07:39:31.019Z,-39.49
2017-03-29T07:40:11.918Z,13.89
2017-03-29T07:40:52.834Z,13.6
2017-03-29T07:41:33.770Z,13.39
2017-03-29T07:42:14.650Z,13.35
2017-03-29T07:42:55.533Z,13.39
2017-03-29T07:43:36.417Z,13.12
2017-03-29T07:44:17.298Z,13.08
2017-03-29T07:44:58.183Z,13.57
2017-03-29T07:45:39.066Z,13.89
2017-03-29T07:46:19.951Z,14.05
2017-03-29T07:47:00.840Z,14.2
2017-03-29T07:47:41.718Z,14.28
2017-03-29T07:48:22.597Z,14.28
2017-03-29T07:49:03.475Z,14.5
2017-03-29T07:49:44.352Z,14.47
2017-03-29T07:50:25.226Z,14.5
2017-03-29T07:51:06.106Z,14.68
2017-03-29T07:51:46.986Z,15
2017-03-29T07:52:27.898Z,-39.49
2017-03-29T07:53:08.778Z,-39.49
2017-03-29T07:53:49.645Z,-39.49
2017-03-29T07:54:30.519Z,14.85
2017-03-29T07:55:11.401Z,15
2017-03-29T07:55:52.273Z,14.92
2017-03-29T07:56:33.142Z,15.02
2017-03-29T07:57:14.021Z,14.96
2017-03-29T07:57:54.905Z,15.06
2017-03-29T07:58:35.784Z,15.07
2017-03-29T07:59:16.687Z,15.09
2017-03-29T07:59:57.546Z,15.03
2017-03-29T08:00:38.423Z,15.03
2017-03-29T08:01:19.294Z,15.04
2017-03-29T08:02:00.169Z,15.03
2017-03-29T08:02:41.060Z,14.92
2017-03-29T08:03:21.938Z,14.89
2017-03-29T08:04:02.815Z,14.79
2017-03-29T08:04:43.697Z,14.91
2017-03-29T08:05:24.580Z,14.84
2017-03-29T08:06:05.458Z,14.96
2017-03-29T08:06:46.329Z,15
2017-03-29T08:07:27.196Z,15.06
2017-03-29T08:08:08.071Z,15.18
2017-03-29T08:08:48.974Z,15.1
2017-03-29T08:09:29.840Z,15.14
2017-03-29T08:10:10.724Z,15.17
2017-03-29T08:10:51.609Z,15.11
2017-03-29T08:11:32.490Z,15.29
2017-03-29T08:12:13.371Z,15.44
2017-03-29T08:12:54.272Z,15.47
2017-03-29T08:13:35.156Z,15.76
2017-03-29T08:14:16.051Z,15.94
2017-03-29T08:14:56.933Z,16
2017-03-29T08:15:37.825Z,16.01
2017-03-29T08:16:18.708Z,15.88
2017-03-29T08:16:59.595Z,16
2017-03-29T08:17:40.477Z,16.05
2017-03-29T08:18:21.392Z,15.77
2017-03-29T08:19:02.242Z,15.64
2017-03-29T08:19:43.134Z,15.52
2017-03-29T08:20:24.014Z,15.47
2017-03-29T08:21:04.924Z,15.39
2017-03-29T08:21:45.808Z,15.36
2017-03-29T08:22:26.691Z,15.36
2017-03-29T08:23:07.574Z,15.36
2017-03-29T08:23:48.467Z,15.33
2017-03-29T08:24:29.356Z,15.22
2017-03-29T08:25:10.217Z,15.22
2017-03-29T08:25:51.097Z,15.07
2017-03-29T08:26:31.979Z,15.11
2017-03-29T08:27:12.872Z,15.1
2017-03-29T08:27:53.748Z,15.03
2017-03-29T08:28:34.622Z,14.92
2017-03-29T08:29:15.518Z,14.88
2017-03-29T08:29:56.408Z,14.72
2017-03-29T08:30:37.299Z,14.7
2017-03-29T08:31:18.184Z,14.7
2017-03-29T08:31:59.067Z,14.72
2017-03-29T08:32:39.951Z,14.73
2017-03-29T08:33:20.831Z,14.79
2017-03-29T08:34:01.736Z,14.82
2017-03-29T08:34:42.618Z,14.69
2017-03-29T08:35:23.494Z,14.48
2017-03-29T08:36:04.369Z,14.65
2017-03-29T08:36:45.283Z,14.69
2017-03-29T08:37:26.161Z,14.73
2017-03-29T08:38:07.035Z,14.62
2017-03-29T08:38:47.919Z,14.81
2017-03-29T08:39:28.806Z,14.77
2017-03-29T08:40:09.695Z,14.77
2017-03-29T08:40:50.567Z,14.65
2017-03-29T08:41:31.461Z,14.5
2017-03-29T08:42:12.338Z,14.5
2017-03-29T08:42:53.221Z,14.68
2017-03-29T08:43:34.103Z,14.77
2017-03-29T08:44:14.992Z,14.63
2017-03-29T08:44:55.884Z,14.63
2017-03-29T08:45:36.761Z,14.65
2017-03-29T08:46:17.636Z,14.69
2017-03-29T08:46:58.528Z,14.73
2017-03-29T08:47:39.402Z,14.79
2017-03-29T08:48:20.292Z,14.84
2017-03-29T08:49:01.169Z,14.73
2017-03-29T08:49:42.064Z,14.86
2017-03-29T08:50:22.948Z,14.85
2017-03-29T08:51:03.826Z,14.81
2017-03-29T08:51:44.695Z,14.68
2017-03-29T08:52:25.585Z,14.72
2017-03-29T08:53:06.468Z,14.62
2017-03-29T08:53:47.359Z,14.72
2017-03-29T08:54:28.232Z,14.73
2017-03-29T08:55:09.116Z,14.69
2017-03-29T08:55:50.001Z,14.6
2017-03-29T08:56:30.883Z,14.53
2017-03-29T08:57:11.789Z,14.72